CheckWX is a tool to help pilots better visualize weather data.  It is not intended as a substitute for an official pre-flight weather briefing.

06:56:25 UTC

NVSS TAF
Santo Pekoa International Airport
Luganville, Vanuatu
TAF NVSS 190430Z 1906/2006 12014KT 9999 SCT020 INTER 1912/1918 8000 SHRA BKN018 OVC040 BECMG 1908/1910 13006KT

Jun-19@
06:00 UTC

Jun-19 @ 06:00 UTC

Jun-19@
08:00 UTC

Jun-19 @ 08:00 UTC

TAF NVSS 190430Z 1906/2006 12014KT 9999 SCT020
Wind
  • 120° at 14 KTS
Cloud Levels
  • Scattered at 2,000' AGL

Jun-19@
08:00 UTC

Jun-19 @ 08:00 UTC

Jun-20@
06:00 UTC

Jun-20 @ 06:00 UTC

BECMG 1908/1910 13006KT

Becoming

Becoming Conditions expected by Wed, Jun 19, 2019 @ 10:00 UTC

Wind
  • 130° at 6 KTS
Cloud Levels
  • Scattered at 2,000' AGL

Jun-19@
12:00 UTC

Jun-19 @ 12:00 UTC

Jun-19@
18:00 UTC

Jun-19 @ 18:00 UTC

INTER 1912/1918 8000 SHRA BKN018 OVC040

Temporary

Temporary Changes expected for less than half the time period

Conditions
Rain
Cloud Levels
  • Broken at 1,800' AGL
  • Overcast at 4,000' AGL